Time;durP1;ratioP1;P1;durP2;ratioP2;P2;SDS_P1;SDS_P2;PMS_P1;PMS_P2;Temp;Humidity;BMP_temperature;BMP_pressure;BME280_temperature;BME280_humidity;BME280_pressure;Samples;Min_cycle;Max_cycle;Signal;HPM_P1;HPM_P2
2022/11/07 00:02:18;;;;;;;0.10;0.10;;;;;;;12.60;75.24;100673.41;5087811;28;20027;-80
2022/11/07 00:04:44;;;;;;;0.43;0.38;;;;;;;12.55;75.32;100668.22;5094123;28;20028;-80
2022/11/07 00:07:10;;;;;;;0.45;0.45;;;;;;;12.62;75.60;100680.41;5088189;28;20032;-80
2022/11/07 00:09:36;;;;;;;0.10;0.10;;;;;;;12.67;74.79;100674.06;5090202;28;20029;-80
2022/11/07 00:12:03;;;;;;;0.35;0.35;;;;;;;12.66;75.15;100680.28;5092928;28;20028;-80
2022/11/07 00:14:29;;;;;;;0.10;0.10;;;;;;;12.71;75.07;100673.03;5091533;28;20039;-80
2022/11/07 00:16:56;;;;;;;0.10;0.10;;;;;;;12.74;74.75;100679.13;5091325;28;20016;-80
2022/11/07 00:19:22;;;;;;;0.10;0.10;;;;;;;12.78;74.63;100680.78;5093892;28;20036;-80
2022/11/07 00:21:49;;;;;;;0.10;0.10;;;;;;;12.76;74.54;100693.25;5091256;28;20492;-80
2022/11/07 00:24:16;;;;;;;0.10;0.10;;;;;;;12.73;74.44;100676.53;5093663;28;20027;-80
2022/11/07 00:26:43;;;;;;;0.10;0.10;;;;;;;12.83;73.98;100683.28;5088183;28;20035;-80
2022/11/07 00:29:14;;;;;;;0.10;0.10;;;;;;;12.83;74.08;100677.09;5093868;28;20020;-80
2022/11/07 00:31:41;;;;;;;0.73;0.73;;;;;;;12.78;74.32;100685.22;5089203;28;20066;-80
2022/11/07 00:34:07;;;;;;;0.10;0.10;;;;;;;12.74;74.86;100679.13;5091780;28;20024;-80
2022/11/07 00:36:33;;;;;;;0.20;0.20;;;;;;;12.71;74.63;100673.94;5087407;28;20032;-80
2022/11/07 00:39:00;;;;;;;0.17;0.17;;;;;;;12.72;74.56;100685.41;5090417;28;20506;-80
2022/11/07 00:41:26;;;;;;;0.17;0.17;;;;;;;12.65;74.67;100694.50;5094062;28;20047;-80
2022/11/07 00:43:53;;;;;;;1.55;1.05;;;;;;;12.69;74.15;100681.06;5091528;28;20024;-80
2022/11/07 00:46:20;;;;;;;0.10;0.10;;;;;;;12.70;74.53;100682.81;5090770;28;20438;-80
2022/11/07 00:48:47;;;;;;;0.10;0.10;;;;;;;12.61;74.14;100689.28;5084573;28;20032;-80
2022/11/07 00:51:16;;;;;;;0.10;0.10;;;;;;;12.63;74.56;100686.56;5086487;28;20129;-80
2022/11/07 00:53:42;;;;;;;0.52;0.52;;;;;;;12.62;74.69;100692.81;5085533;28;20035;-80
2022/11/07 00:56:12;;;;;;;0.08;0.08;;;;;;;12.59;74.53;100696.44;5088564;28;20445;-80
2022/11/07 00:58:40;;;;;;;0.10;0.10;;;;;;;12.56;74.78;100706.28;5086242;28;20479;-80
2022/11/07 01:01:15;;;;;;;1.65;0.75;;;;;;;12.61;74.59;100699.03;5082741;28;20031;-80
2022/11/07 01:06:31;;;;;;;0.10;0.10;;;;;;;12.71;74.74;100715.56;5085106;28;20074;-80
2022/11/07 01:08:58;;;;;;;0.10;0.10;;;;;;;12.75;74.47;100718.09;5088958;28;20028;-80
2022/11/07 01:11:26;;;;;;;0.10;0.10;;;;;;;12.74;74.57;100710.19;5089276;28;20491;-80
2022/11/07 01:13:57;;;;;;;0.10;0.10;;;;;;;12.69;74.69;100718.28;5093792;28;20031;-80
2022/11/07 01:16:23;;;;;;;0.10;0.10;;;;;;;12.76;74.38;100714.53;5089949;28;20035;-80
2022/11/07 01:18:49;;;;;;;0.10;0.10;;;;;;;12.71;74.72;100732.41;5092540;28;20036;-80
2022/11/07 01:21:15;;;;;;;0.10;0.10;;;;;;;12.79;74.45;100734.81;5077669;28;20059;-80
2022/11/07 01:23:41;;;;;;;0.10;0.10;;;;;;;12.84;74.29;100746.19;5081677;28;20028;-80
2022/11/07 01:26:10;;;;;;;0.10;0.10;;;;;;;12.89;73.83;100746.91;5083127;28;20032;-80
2022/11/07 01:28:37;;;;;;;0.10;0.10;;;;;;;12.84;74.05;100743.53;5084591;28;20028;-80
2022/11/07 01:31:06;;;;;;;0.65;0.65;;;;;;;12.85;74.00;100745.28;5081497;28;20024;-80
2022/11/07 01:33:32;;;;;;;0.55;0.55;;;;;;;12.94;73.74;100738.78;5083097;28;20035;-80
2022/11/07 01:36:09;;;;;;;0.10;0.10;;;;;;;12.90;73.79;100764.59;5085175;28;20039;-80
2022/11/07 01:38:38;;;;;;;0.10;0.10;;;;;;;12.94;74.16;100742.31;5085866;28;20059;-79
2022/11/07 01:41:21;;;;;;;0.20;0.20;;;;;;;12.98;73.99;100766.16;5089122;28;20029;-80
2022/11/07 01:46:31;;;;;;;0.10;0.10;;;;;;;12.85;74.18;100736.44;5060865;28;20384;-80
2022/11/07 01:49:17;;;;;;;0.35;0.35;;;;;;;12.86;74.15;100754.09;5047901;28;20025;-79
2022/11/07 01:51:47;;;;;;;0.10;0.10;;;;;;;12.73;75.20;100756.28;5049899;28;20025;-80
2022/11/07 01:54:18;;;;;;;0.10;0.10;;;;;;;12.68;74.78;100753.75;5054195;28;20037;-80
2022/11/07 01:56:45;;;;;;;0.30;0.30;;;;;;;12.77;75.32;100747.28;5051210;28;20025;-80
2022/11/07 01:59:16;;;;;;;0.10;0.10;;;;;;;12.76;75.65;100748.19;5051105;28;20039;-80
2022/11/07 02:01:42;;;;;;;1.00;1.00;;;;;;;12.66;74.80;100744.09;5052616;28;20547;-80
2022/11/07 02:04:09;;;;;;;0.40;0.40;;;;;;;12.69;75.64;100744.88;5052085;28;20032;-80
2022/11/07 02:06:45;;;;;;;0.10;0.10;;;;;;;12.71;75.08;100744.81;5051412;28;20029;-80
2022/11/07 02:09:12;;;;;;;0.10;0.10;;;;;;;12.68;75.23;100753.75;5049365;28;20024;-80
2022/11/07 02:11:38;;;;;;;0.10;0.10;;;;;;;12.63;74.94;100755.69;5050995;28;20051;-80
2022/11/07 02:14:05;;;;;;;1.75;1.30;;;;;;;12.61;75.30;100755.72;5053247;28;20040;-80
2022/11/07 02:16:33;;;;;;;0.17;0.17;;;;;;;12.70;75.29;100756.38;5051777;28;20527;-80
2022/11/07 02:19:00;;;;;;;0.10;0.10;;;;;;;12.73;74.85;100756.28;5045998;28;20025;-80
2022/11/07 02:21:42;;;;;;;0.10;0.10;;;;;;;12.70;75.16;100748.41;5050888;28;20032;-80
2022/11/07 02:26:45;;;;;;;0.17;0.17;;;;;;;12.71;75.45;100752.78;5070174;28;20893;-80
2022/11/07 02:29:11;;;;;;;0.57;0.57;;;;;;;12.82;74.60;100758.66;5046927;28;20048;-80
2022/11/07 02:31:38;;;;;;;0.10;0.10;;;;;;;12.81;74.95;100764.00;5048052;28;20032;-80
2022/11/07 02:34:04;;;;;;;0.32;0.32;;;;;;;12.76;74.91;100761.50;5045980;28;20083;-80
2022/11/07 02:36:30;;;;;;;0.63;0.43;;;;;;;12.76;74.60;100761.50;5040515;28;20556;-80
2022/11/07 02:38:58;;;;;;;0.10;0.10;;;;;;;12.74;74.74;100763.34;5048128;28;20444;-80
2022/11/07 02:41:30;;;;;;;0.10;0.10;;;;;;;12.77;75.17;100761.47;5045607;28;20029;-79
2022/11/07 02:44:01;;;;;;;0.20;0.20;;;;;;;12.70;74.74;100759.91;5050745;28;20025;-79
2022/11/07 02:46:30;;;;;;;0.60;0.60;;;;;;;12.76;74.84;100764.16;5049640;28;20021;-80
2022/11/07 02:48:58;;;;;;;0.10;0.10;;;;;;;12.82;74.79;100765.75;5047220;28;20111;-79
2022/11/07 02:51:25;;;;;;;1.00;1.00;;;;;;;12.81;74.89;100753.38;5036125;28;20029;-80
2022/11/07 02:53:51;;;;;;;0.43;0.43;;;;;;;12.82;74.79;100758.66;5047521;28;20389;-80
2022/11/07 02:56:19;;;;;;;0.10;0.10;;;;;;;12.85;74.88;100766.53;5049800;28;20108;-80
2022/11/07 02:58:45;;;;;;;0.10;0.10;;;;;;;12.85;75.15;100758.56;5049455;28;20037;-80
2022/11/07 03:01:12;;;;;;;0.43;0.43;;;;;;;12.79;75.33;100761.41;5048508;28;20025;-80
2022/11/07 03:03:42;;;;;;;0.15;0.15;;;;;;;12.88;75.25;100761.13;5047664;28;20507;-79
2022/11/07 03:06:11;;;;;;;0.10;0.10;;;;;;;12.90;75.18;100769.06;5042419;28;20105;-79
2022/11/07 03:08:38;;;;;;;0.10;0.10;;;;;;;12.89;75.25;100757.53;5046586;28;20159;-80
2022/11/07 03:11:05;;;;;;;0.10;0.10;;;;;;;12.93;74.92;100767.19;5049553;28;20021;-80
2022/11/07 03:13:31;;;;;;;0.10;0.10;;;;;;;12.89;74.64;100783.28;5049888;28;20087;-80
2022/11/07 03:15:58;;;;;;;0.10;0.10;;;;;;;12.89;74.54;100776.16;5047397;28;20095;-79
2022/11/07 03:18:24;;;;;;;1.00;1.00;;;;;;;12.85;74.83;100777.19;5045352;28;20562;-79
2022/11/07 03:20:50;;;;;;;0.25;0.25;;;;;;;12.82;74.79;100771.94;5038839;28;20497;-79
2022/11/07 03:23:16;;;;;;;0.40;0.40;;;;;;;12.84;74.66;100770.13;5040232;28;20025;-79
2022/11/07 03:25:42;;;;;;;0.28;0.28;;;;;;;12.86;74.55;100780.69;5036123;28;20044;-79
2022/11/07 03:28:08;;;;;;;0.10;0.10;;;;;;;12.85;74.78;100778.97;5038773;28;20442;-78
2022/11/07 03:30:34;;;;;;;0.10;0.10;;;;;;;12.85;74.26;100781.63;5031911;28;20033;-78
2022/11/07 03:33:01;;;;;;;0.10;0.10;;;;;;;12.87;74.45;100780.66;5034802;28;20175;-78
2022/11/07 03:35:27;;;;;;;0.65;0.55;;;;;;;12.87;74.48;100787.75;5030464;28;20041;-78
2022/11/07 03:37:54;;;;;;;0.10;0.10;;;;;;;12.82;74.77;100771.94;5016816;28;20037;-79
2022/11/07 03:40:20;;;;;;;0.10;0.10;;;;;;;12.82;74.61;100777.25;5023987;28;20025;-78
2022/11/07 03:42:46;;;;;;;0.10;0.10;;;;;;;12.81;74.35;100772.00;5017497;28;20040;-78
2022/11/07 03:45:14;;;;;;;0.10;0.10;;;;;;;12.85;74.77;100777.19;5032624;28;20075;-78
2022/11/07 03:47:42;;;;;;;0.10;0.10;;;;;;;12.87;74.36;100777.13;5030764;28;20326;-78
2022/11/07 03:50:10;;;;;;;0.10;0.10;;;;;;;12.92;74.29;100770.75;5029522;28;20053;-78
2022/11/07 03:52:37;;;;;;;0.10;0.10;;;;;;;12.84;74.69;100769.25;5024660;28;20029;-78
2022/11/07 03:55:03;;;;;;;0.10;0.10;;;;;;;12.84;74.73;100758.63;5029671;28;20079;-78
2022/11/07 03:57:29;;;;;;;0.10;0.10;;;;;;;12.85;74.27;100763.88;5031241;28;20087;-78
2022/11/07 03:59:55;;;;;;;0.10;0.10;;;;;;;12.82;74.64;100769.28;5033179;28;20033;-78
2022/11/07 04:02:22;;;;;;;0.20;0.20;;;;;;;12.77;75.09;100764.13;5036499;28;20033;-78
2022/11/07 04:04:48;;;;;;;0.10;0.10;;;;;;;12.83;74.34;100779.00;5025467;28;20048;-78
2022/11/07 04:07:14;;;;;;;0.10;0.10;;;;;;;12.87;74.41;100770.03;5033038;28;20026;-78
2022/11/07 04:09:40;;;;;;;0.10;0.10;;;;;;;12.86;74.10;100768.28;5033446;28;20045;-78
2022/11/07 04:17:40;;;;;;;0.40;0.40;;;;;;;12.89;74.40;100770.84;5037201;28;20034;-78
2022/11/07 04:20:07;;;;;;;0.10;0.10;;;;;;;12.89;74.42;100784.13;5026428;28;20038;-78
2022/11/07 04:22:33;;;;;;;0.10;0.10;;;;;;;12.92;74.22;100770.75;5028662;28;20523;-78
2022/11/07 04:25:00;;;;;;;0.10;0.10;;;;;;;12.90;74.39;100775.25;5033298;28;20108;-78
2022/11/07 04:27:41;;;;;;;0.25;0.25;;;;;;;12.90;74.43;100769.06;5032968;28;20057;-78
2022/11/07 04:32:49;;;;;;;1.75;1.65;;;;;;;12.95;74.03;100773.31;5170878;27;20377;-80
2022/11/07 04:35:16;;;;;;;0.10;0.10;;;;;;;12.92;74.55;100767.22;5167376;27;20022;-80
2022/11/07 04:37:42;;;;;;;0.10;0.10;;;;;;;12.93;74.25;100769.84;5167645;27;20372;-80
2022/11/07 04:40:09;;;;;;;0.13;0.13;;;;;;;12.89;74.17;100767.31;5168581;27;20040;-81
2022/11/07 04:42:36;;;;;;;0.10;0.10;;;;;;;12.86;74.16;100768.28;5146050;27;20031;-81
2022/11/07 04:45:02;;;;;;;4.95;0.75;;;;;;;12.91;74.11;100765.47;5147573;27;20029;-81
2022/11/07 04:47:29;;;;;;;0.20;0.20;;;;;;;12.91;74.52;100774.34;5147221;27;20121;-81
2022/11/07 04:49:55;;;;;;;0.10;0.10;;;;;;;12.95;73.86;100767.13;5148388;27;20081;-81
2022/11/07 04:52:21;;;;;;;0.47;0.47;;;;;;;12.98;73.90;100769.69;5150932;27;20015;-80
2022/11/07 04:54:47;;;;;;;0.10;0.10;;;;;;;12.95;74.21;100769.78;5151400;27;20023;-81
2022/11/07 04:57:14;;;;;;;0.20;0.20;;;;;;;13.01;73.91;100766.06;5148388;27;20026;-81
2022/11/07 04:59:40;;;;;;;0.10;0.10;;;;;;;13.02;73.90;100762.47;5148208;27;20035;-81
2022/11/07 05:02:10;;;;;;;0.10;0.10;;;;;;;12.99;73.87;100770.56;5149992;27;20091;-80
2022/11/07 05:04:37;;;;;;;0.10;0.10;;;;;;;13.06;74.07;100775.66;5147214;27;20039;-81
2022/11/07 05:07:03;;;;;;;0.10;0.10;;;;;;;13.01;74.30;100782.91;5150947;27;20026;-81
2022/11/07 05:09:29;;;;;;;0.20;0.20;;;;;;;13.08;73.72;100770.25;5149984;27;20034;-82
2022/11/07 05:11:56;;;;;;;0.10;0.10;;;;;;;13.10;73.89;100777.28;5149287;27;20389;-82
2022/11/07 05:14:22;;;;;;;0.08;0.08;;;;;;;13.12;74.00;100771.91;5150154;27;20445;-82
2022/11/07 05:16:49;;;;;;;0.35;0.35;;;;;;;13.10;74.17;100776.41;5150383;27;20066;-81
2022/11/07 05:19:17;;;;;;;7.68;3.00;;;;;;;13.02;73.97;100778.44;5145594;27;20027;-81
2022/11/07 05:21:44;;;;;;;0.10;0.10;;;;;;;13.09;73.78;100780.00;5148931;27;20085;-81
2022/11/07 05:24:11;;;;;;;0.82;0.82;;;;;;;13.14;73.62;100782.50;5149444;27;20015;-82
2022/11/07 05:26:37;;;;;;;0.20;0.20;;;;;;;13.07;73.72;100788.03;5149052;27;20612;-81
2022/11/07 05:29:04;;;;;;;0.30;0.30;;;;;;;13.06;74.09;100788.06;5149997;27;20026;-81
2022/11/07 05:31:30;;;;;;;2.50;2.30;;;;;;;13.10;74.01;100789.72;5150840;27;20591;-81
2022/11/07 05:33:56;;;;;;;1.65;1.08;;;;;;;13.04;74.14;100788.09;5146662;27;20035;-81
2022/11/07 05:36:24;;;;;;;1.48;1.38;;;;;;;13.02;74.17;100799.72;5150319;27;20166;-81
2022/11/07 05:38:52;;;;;;;0.10;0.10;;;;;;;13.05;74.11;100795.16;5148639;27;20407;-81
2022/11/07 05:41:20;;;;;;;0.10;0.10;;;;;;;13.15;74.23;100789.59;5150371;27;20413;-81
2022/11/07 05:43:47;;;;;;;0.13;0.13;;;;;;;13.14;73.88;100782.50;5140148;27;20019;-81
2022/11/07 05:46:13;;;;;;;0.10;0.10;;;;;;;13.13;73.77;100781.63;5137853;27;20477;-81
2022/11/07 05:48:40;;;;;;;0.10;0.10;;;;;;;13.15;74.25;100784.25;5136997;27;20118;-81
2022/11/07 05:51:07;;;;;;;0.10;0.10;;;;;;;13.12;74.29;100785.19;5136666;27;20025;-82
2022/11/07 05:53:34;;;;;;;0.20;0.20;;;;;;;13.15;74.09;100795.75;5137411;27;20054;-82
2022/11/07 05:56:00;;;;;;;0.45;0.45;;;;;;;13.14;73.85;100785.19;5136787;27;20046;-82
2022/11/07 05:58:26;;;;;;;0.10;0.10;;;;;;;13.09;73.90;100790.63;5137840;27;20056;-82
2022/11/07 06:00:52;;;;;;;0.10;0.10;;;;;;;13.14;74.03;100794.00;5132936;27;20019;-81
2022/11/07 06:03:18;;;;;;;0.10;0.10;;;;;;;13.13;73.92;100797.59;5134370;27;20076;-81
2022/11/07 06:05:45;;;;;;;0.10;0.10;;;;;;;13.14;73.99;100794.00;5135824;27;20069;-81
2022/11/07 06:08:13;;;;;;;0.10;0.10;;;;;;;13.09;74.00;100801.28;5136671;27;20035;-81
2022/11/07 06:10:41;;;;;;;0.10;0.10;;;;;;;13.10;73.64;100787.91;5135356;27;20042;-81
2022/11/07 06:13:10;;;;;;;0.10;0.10;;;;;;;13.13;73.86;100792.25;5135048;27;20031;-81
2022/11/07 06:15:38;;;;;;;0.10;0.10;;;;;;;13.17;73.58;100793.94;5136426;27;20079;-80
2022/11/07 06:18:07;;;;;;;0.10;0.10;;;;;;;13.25;73.46;100797.19;5134556;27;20053;-82
2022/11/07 06:20:34;;;;;;;0.10;0.10;;;;;;;13.34;73.48;100785.38;5134445;27;20128;-81
2022/11/07 06:23:02;;;;;;;31.88;1.38;;;;;;;13.34;73.01;100788.06;5134002;27;20035;-81
2022/11/07 06:25:29;;;;;;;0.10;0.10;;;;;;;13.34;73.18;100796.03;5135008;27;20099;-81
2022/11/07 06:28:06;;;;;;;0.80;0.80;;;;;;;13.44;73.09;100799.31;5132275;27;21423;-82
2022/11/07 06:30:33;;;;;;;1.63;1.52;;;;;;;13.37;72.88;100808.38;5132994;27;20471;-81
2022/11/07 06:33:01;;;;;;;0.10;0.10;;;;;;;13.38;72.82;100810.16;5135652;27;20038;-81
2022/11/07 06:35:28;;;;;;;0.20;0.20;;;;;;;13.34;73.15;100804.03;5133969;27;20507;-81
2022/11/07 06:37:54;;;;;;;0.10;0.10;;;;;;;13.35;72.78;100807.56;5135072;27;20448;-81
2022/11/07 06:40:20;;;;;;;0.10;0.10;;;;;;;13.33;72.99;100809.41;5133945;27;20548;-82
2022/11/07 06:42:51;;;;;;;0.10;0.10;;;;;;;13.39;73.21;100801.25;5135182;27;20027;-81
2022/11/07 06:45:18;;;;;;;0.10;0.10;;;;;;;13.42;72.89;100811.78;5134165;27;20495;-81
2022/11/07 06:47:44;;;;;;;0.10;0.10;;;;;;;13.41;72.82;100804.75;5133976;27;20106;-81
2022/11/07 06:50:10;;;;;;;0.10;0.10;;;;;;;13.36;72.61;100809.31;5134098;27;20031;-81
2022/11/07 06:52:37;;;;;;;1.17;0.85;;;;;;;13.35;72.61;100810.22;5135509;27;20028;-82
2022/11/07 06:55:03;;;;;;;0.20;0.20;;;;;;;13.37;72.51;100805.72;5135474;27;20370;-82
2022/11/07 06:57:29;;;;;;;0.10;0.10;;;;;;;13.31;72.54;100803.25;5136101;27;20023;-82
2022/11/07 06:59:55;;;;;;;0.10;0.10;;;;;;;13.38;72.37;100810.16;5135565;27;20034;-79
2022/11/07 07:02:21;;;;;;;0.10;0.10;;;;;;;13.33;72.83;100804.06;5134770;27;20157;-78
2022/11/07 07:04:48;;;;;;;0.30;0.30;;;;;;;13.33;72.43;100810.25;5133489;27;20069;-79
2022/11/07 07:07:14;;;;;;;1.35;1.10;;;;;;;13.36;72.75;100798.66;5133577;27;20031;-79
2022/11/07 07:09:40;;;;;;;0.10;0.10;;;;;;;13.42;72.65;100814.44;5134843;27;20039;-80
2022/11/07 07:12:08;;;;;;;0.03;0.03;;;;;;;13.45;72.52;100814.34;5133301;27;20503;-79
2022/11/07 07:14:34;;;;;;;0.10;0.10;;;;;;;13.38;72.63;100807.47;5132088;27;20027;-79
2022/11/07 07:17:00;;;;;;;0.35;0.35;;;;;;;13.36;72.68;100822.63;5129509;27;20039;-79
2022/11/07 07:19:27;;;;;;;0.10;0.10;;;;;;;13.35;72.66;100823.53;5132872;27;20113;-79
2022/11/07 07:21:53;;;;;;;0.10;0.10;;;;;;;13.42;72.63;100830.41;5133228;27;20019;-78
2022/11/07 07:24:19;;;;;;;0.10;0.10;;;;;;;13.47;72.62;100830.28;5133278;27;20027;-79
2022/11/07 07:26:45;;;;;;;0.30;0.30;;;;;;;13.48;72.76;100824.88;5115423;27;20461;-79
2022/11/07 07:29:11;;;;;;;0.10;0.10;;;;;;;13.37;72.86;100838.56;5133343;27;20031;-78
2022/11/07 07:31:37;;;;;;;0.10;0.10;;;;;;;13.40;72.55;100848.25;5134152;27;20046;-80
2022/11/07 07:34:03;;;;;;;1.88;1.50;;;;;;;13.42;73.05;100851.69;5133501;27;20035;-80
2022/11/07 07:36:31;;;;;;;0.10;0.10;;;;;;;13.51;72.87;100842.59;5135659;27;20037;-83
2022/11/07 07:38:58;;;;;;;14.85;0.80;;;;;;;13.57;72.41;100843.25;5132471;27;20027;-82
2022/11/07 07:41:24;;;;;;;0.10;0.10;;;;;;;13.58;72.47;100862.72;5135385;27;20012;-82
2022/11/07 07:43:50;;;;;;;0.75;0.75;;;;;;;13.61;72.35;100862.66;5135015;27;20046;-82
2022/11/07 07:46:21;;;;;;;1.30;1.30;;;;;;;13.63;72.64;100876.75;5135614;27;20031;-82
2022/11/07 07:48:47;;;;;;;0.10;0.10;;;;;;;13.65;72.33;100856.28;5131737;27;20027;-82
2022/11/07 07:51:14;;;;;;;0.10;0.10;;;;;;;13.65;72.33;100868.75;5134299;27;20023;-82
2022/11/07 07:53:40;;;;;;;6.55;1.23;;;;;;;13.73;72.18;100862.25;5135396;27;20050;-82
2022/11/07 07:56:06;;;;;;;0.10;0.10;;;;;;;13.85;72.05;100871.59;5131571;27;20031;-80
2022/11/07 07:58:33;;;;;;;2.47;2.28;;;;;;;13.84;71.99;100869.88;5133353;27;20061;-82
2022/11/07 08:00:59;;;;;;;0.55;0.55;;;;;;;13.89;72.14;100873.28;5132813;27;20031;-80
2022/11/07 08:03:26;;;;;;;0.10;0.10;;;;;;;13.88;71.83;100860.88;5131600;27;20030;-80
2022/11/07 08:05:59;;;;;;;0.10;0.10;;;;;;;13.93;71.96;100874.00;5133561;27;20023;-80
2022/11/07 08:08:25;;;;;;;0.10;0.10;;;;;;;14.07;71.67;100871.75;5134273;27;20088;-81
2022/11/07 08:10:53;;;;;;;1.10;1.10;;;;;;;14.07;71.66;100884.22;5130184;27;20039;-81
2022/11/07 08:13:21;;;;;;;0.10;0.10;;;;;;;14.10;71.57;100886.78;5133139;27;20027;-81
2022/11/07 08:15:47;;;;;;;0.10;0.10;;;;;;;14.12;71.72;100884.94;5133316;27;20099;-81
2022/11/07 08:18:13;;;;;;;0.10;0.10;;;;;;;14.18;71.34;100905.16;5131664;27;20059;-82
2022/11/07 08:20:40;;;;;;;0.10;0.10;;;;;;;14.21;71.25;100908.59;5132161;27;20403;-81
2022/11/07 08:23:08;;;;;;;0.10;0.10;;;;;;;14.28;71.16;100906.59;5131961;27;20083;-81
2022/11/07 08:25:34;;;;;;;0.40;0.40;;;;;;;14.31;70.89;100910.97;5130965;27;20034;-81
2022/11/07 08:28:01;;;;;;;0.15;0.15;;;;;;;14.28;71.00;100935.03;5134963;27;20019;-80
2022/11/07 08:30:29;;;;;;;0.10;0.10;;;;;;;14.28;70.74;100916.38;5138611;28;20145;-80
2022/11/07 08:32:58;;;;;;;0.10;0.10;;;;;;;14.32;70.80;100912.69;5140723;27;20088;-81
2022/11/07 08:35:25;;;;;;;0.10;0.10;;;;;;;14.31;70.71;100921.63;5138207;28;20647;-81
2022/11/07 08:37:52;;;;;;;0.65;0.65;;;;;;;14.27;70.55;100925.28;5135673;28;20029;-80
2022/11/07 08:40:19;;;;;;;0.10;0.10;;;;;;;14.29;70.64;100923.44;5134192;27;20027;-81
2022/11/07 08:42:45;;;;;;;0.10;0.10;;;;;;;14.42;70.46;100921.22;5134838;27;20144;-82
2022/11/07 08:45:11;;;;;;;0.25;0.25;;;;;;;14.47;70.43;100921.97;5132691;27;20046;-81
2022/11/07 08:47:37;;;;;;;0.10;0.10;;;;;;;14.44;70.54;100933.56;5126111;27;20044;-81
2022/11/07 08:50:04;;;;;;;0.10;0.10;;;;;;;14.48;70.28;100923.69;5129309;27;20035;-81
2022/11/07 08:52:30;;;;;;;0.10;0.10;;;;;;;14.47;70.39;100928.16;5131380;27;20520;-82
2022/11/07 08:54:56;;;;;;;0.10;0.10;;;;;;;14.53;70.35;100930.59;5130485;27;21085;-84
2022/11/07 08:57:22;;;;;;;0.10;0.10;;;;;;;14.47;70.00;100930.81;5128538;27;20027;-81
2022/11/07 08:59:49;;;;;;;0.10;0.10;;;;;;;14.47;70.21;100944.16;5133511;27;20023;-80
2022/11/07 09:02:15;;;;;;;0.10;0.10;;;;;;;14.58;70.10;100930.44;5133286;27;20027;-80
2022/11/07 09:04:41;;;;;;;0.10;0.10;;;;;;;14.52;69.74;100936.00;5133051;27;20547;-81
2022/11/07 09:07:07;;;;;;;0.10;0.10;;;;;;;14.66;69.99;100943.53;5133425;27;20052;-79
2022/11/07 09:09:33;;;;;;;0.35;0.35;;;;;;;14.62;69.74;100940.06;5133036;28;20031;-79
2022/11/07 09:11:59;;;;;;;0.10;0.10;;;;;;;14.59;69.97;100941.97;5133523;27;20027;-83
2022/11/07 09:14:26;;;;;;;1.45;1.35;;;;;;;14.62;69.78;100948.06;5132843;27;20035;-79
2022/11/07 09:16:52;;;;;;;0.35;0.35;;;;;;;14.61;70.07;100945.47;5133608;27;20110;-80
2022/11/07 09:19:18;;;;;;;0.10;0.10;;;;;;;14.71;69.99;100946.91;5134749;27;20027;-83
2022/11/07 09:21:44;;;;;;;0.75;0.75;;;;;;;14.61;70.28;100946.31;5136619;27;20711;-82
2022/11/07 09:24:11;;;;;;;0.85;0.85;;;;;;;14.74;69.78;100967.25;5130934;27;20584;-82
2022/11/07 09:26:37;;;;;;;0.10;0.10;;;;;;;14.78;69.72;100953.78;5135398;27;20035;-82
2022/11/07 09:29:03;;;;;;;0.10;0.10;;;;;;;14.77;69.74;100952.03;5137583;27;20024;-80
2022/11/07 09:31:29;;;;;;;0.10;0.10;;;;;;;14.78;69.67;100961.78;5135801;27;20039;-82
2022/11/07 09:33:55;;;;;;;0.73;0.73;;;;;;;14.76;69.85;100947.59;5136101;27;20450;-82
2022/11/07 09:36:22;;;;;;;0.10;0.10;;;;;;;14.85;69.97;100949.97;5138396;27;20034;-82
2022/11/07 09:38:49;;;;;;;0.10;0.10;;;;;;;14.84;69.94;100948.22;5138198;27;20696;-80
2022/11/07 09:49:33;;;;;;;0.10;0.10;;;;;;;14.97;69.94;100945.09;5078796;27;20145;-80
2022/11/07 09:52:13;;;;;;;0.10;0.10;;;;;;;15.01;70.04;100965.41;5070006;28;20075;-80
2022/11/07 09:54:45;;;;;;;0.10;0.10;;;;;;;15.08;70.17;100966.91;5068988;28;20639;-80
2022/11/07 09:57:16;;;;;;;21.60;0.95;;;;;;;15.10;69.86;100974.88;5060462;28;20056;-80
2022/11/07 09:59:54;;;;;;;0.10;0.10;;;;;;;15.05;69.89;100975.03;5055479;28;20531;-80
2022/11/07 10:02:41;;;;;;;0.57;0.57;;;;;;;15.08;69.95;100993.59;5052675;28;20039;-79
2022/11/07 10:05:15;;;;;;;0.85;0.85;;;;;;;15.10;70.02;100981.06;5059634;28;20372;-80
2022/11/07 10:08:05;;;;;;;0.20;0.20;;;;;;;15.09;69.86;100974.00;5061938;28;20029;-80
2022/11/07 10:13:57;;;;;;;1.65;1.55;;;;;;;15.12;69.66;100981.03;5090606;27;20417;-81
2022/11/07 10:16:51;;;;;;;0.10;0.10;;;;;;;15.15;69.44;100984.44;5089972;28;20040;-81
2022/11/07 10:27:14;;;;;;;0.10;0.10;;;;;;;15.32;68.58;100990.97;5102721;27;20394;-80
2022/11/07 10:37:54;;;;;;;0.10;0.10;;;;;;;15.46;68.18;100988.63;5093409;27;20336;-80
2022/11/07 10:40:21;;;;;;;0.10;0.10;;;;;;;15.50;68.28;100995.59;5088935;28;20036;-80
2022/11/07 10:42:47;;;;;;;0.20;0.20;;;;;;;15.48;67.97;101005.47;5091392;28;20032;-80
2022/11/07 10:45:16;;;;;;;0.10;0.10;;;;;;;15.50;67.71;100990.25;5091292;28;20032;-80
2022/11/07 10:47:53;;;;;;;0.20;0.20;;;;;;;15.53;67.67;100998.13;5089199;28;20020;-80
2022/11/07 10:50:21;;;;;;;0.10;0.10;;;;;;;15.56;67.71;101002.50;5090569;28;20020;-80
2022/11/07 10:53:08;;;;;;;0.10;0.10;;;;;;;15.61;67.54;101010.34;5091398;28;20064;-80
2022/11/07 10:55:44;;;;;;;0.20;0.20;;;;;;;15.54;67.61;101004.38;5090866;28;20024;-80
2022/11/07 10:58:26;;;;;;;0.10;0.10;;;;;;;15.50;67.50;101000.06;5078445;28;20507;-78
2022/11/07 11:01:09;;;;;;;0.10;0.10;;;;;;;15.56;67.96;100998.97;5087829;28;20032;-79
2022/11/07 11:03:50;;;;;;;0.25;0.25;;;;;;;15.59;67.69;101012.19;5088426;28;20032;-78
2022/11/07 11:08:54;;;;;;;0.17;0.17;;;;;;;15.54;67.86;101001.69;5109140;27;20113;-79
2022/11/07 11:14:19;;;;;;;0.10;0.10;;;;;;;15.71;67.93;101000.16;5063043;28;20411;-78
2022/11/07 11:16:47;;;;;;;0.10;0.10;;;;;;;15.66;68.42;101003.00;5049403;28;20047;-79
2022/11/07 11:21:59;;;;;;;0.10;0.10;;;;;;;15.66;67.70;100986.97;5109224;27;20362;-78
2022/11/07 11:24:36;;;;;;;0.10;0.10;;;;;;;15.76;67.72;100996.38;5109220;28;20454;-77
2022/11/07 11:27:11;;;;;;;0.20;0.20;;;;;;;15.80;67.51;100990.00;5099543;28;20033;-78
2022/11/07 11:29:53;;;;;;;0.90;0.90;;;;;;;15.83;67.16;100981.88;5089179;28;20039;-78
2022/11/07 11:37:49;;;;;;;0.10;0.10;;;;;;;15.90;66.85;100981.63;5090324;27;20341;-79
2022/11/07 11:40:21;;;;;;;0.10;0.10;;;;;;;15.99;66.82;100981.28;5102828;28;20024;-78
2022/11/07 11:42:54;;;;;;;0.22;0.22;;;;;;;15.98;66.57;100985.72;5086141;28;20024;-78
2022/11/07 11:45:49;;;;;;;0.10;0.10;;;;;;;15.99;66.24;100986.63;5077397;28;20399;-79
2022/11/07 11:48:27;;;;;;;0.28;0.28;;;;;;;16.09;66.83;100982.63;5075539;28;20403;-79
2022/11/07 11:53:52;;;;;;;0.10;0.10;;;;;;;15.98;66.14;100990.22;5066956;28;20390;-79
2022/11/07 11:56:38;;;;;;;0.28;0.28;;;;;;;16.12;66.38;100993.19;5050168;28;20094;-78
2022/11/07 12:02:20;;;;;;;0.10;0.10;;;;;;;16.12;66.10;100987.84;5104504;27;20070;-76
2022/11/07 12:05:15;;;;;;;0.10;0.10;;;;;;;16.22;66.17;100999.03;5105947;28;20039;-78
2022/11/07 12:13:48;;;;;;;0.10;0.10;;;;;;;16.12;65.88;100982.50;5100677;27;20380;-79
2022/11/07 12:16:34;;;;;;;0.15;0.15;;;;;;;16.23;66.28;100981.22;5103333;28;20503;-78
2022/11/07 12:22:39;;;;;;;0.75;0.75;;;;;;;16.20;65.49;100979.53;5104361;27;20113;-78
2022/11/07 12:25:17;;;;;;;0.45;0.45;;;;;;;16.23;65.99;100984.72;5098428;28;20041;-79
2022/11/07 12:28:09;;;;;;;0.20;0.20;;;;;;;16.25;66.17;100982.00;5084317;28;20020;-77
2022/11/07 12:31:02;;;;;;;0.10;0.10;;;;;;;16.26;66.13;100989.97;5081424;28;20115;-78
2022/11/07 12:36:45;;;;;;;0.30;0.30;;;;;;;16.12;65.81;100985.16;5087335;27;20386;-78
2022/11/07 12:39:26;;;;;;;0.13;0.13;;;;;;;16.11;66.06;100988.81;5073749;28;20040;-77
2022/11/07 12:50:13;;;;;;;0.73;0.73;;;;;;;16.12;67.25;100977.16;5031432;28;20456;-78
2022/11/07 12:53:10;;;;;;;0.10;0.10;;;;;;;16.08;67.07;100970.19;5025580;28;20099;-78
2022/11/07 12:55:46;;;;;;;0.10;0.10;;;;;;;15.96;67.33;100976.94;5025166;28;20017;-78
2022/11/07 12:58:19;;;;;;;0.10;0.10;;;;;;;15.99;67.46;100975.94;5028022;28;20438;-78